Svend Maersk — OYJS2 — position and weather

sailwx.info

Track history (hours):
 
Tides and Currents Weather Stations Pressure Air Temp Water Temp Dewpoint Dewpoint Depression Visibility Wind Speed Wind Dir Waves Ship Positions

Svend Maersk

Last reported at 2016-Aug-15 18:06 UTC. Time now 2016-Aug-25 21:59 UTC.
Position N 35°11' E 140°46'.
Warning: this ship's position is 10 days out of date.

Type: Ship (hazmat cat A). MMSI: 219791000.

Date/timePositionNaut miles runAvg speedWind from/ knotsBaromVisibWave heightAir tempDewpointWater temp
2016-Aug-15 18:06N 35°11' E 140°46'1220.8
2016-Aug-15 17:33N 35°06' E 140°33'2020.0
2016-Aug-15 16:33N 34°56' E 140°12'1817.3
2016-Aug-15 15:32N 34°50' E 139°52'1413.9
2016-Aug-15 14:34N 34°60' E 139°41'1514.6
2016-Aug-15 13:33N 35°14' E 139°46'1111.0
2016-Aug-15 12:34N 35°24' E 139°40'1 0.5
2016-Aug-15 11:33N 35°24' E 139°41'0 0.0
2016-Aug-15 10:32N 35°24' E 139°41'0 0.0
2016-Aug-15 09:29N 35°24' E 139°41'0 0.0
2016-Aug-15 08:26N 35°24' E 139°41'0 0.0
2016-Aug-15 07:32N 35°24' E 139°41'0 0.0
2016-Aug-15 06:32N 35°24' E 139°41'0 0.0
2016-Aug-15 04:32N 35°24' E 139°41'0 0.0
2016-Aug-15 03:33N 35°24' E 139°41'3 3.0
2016-Aug-15 02:33N 35°21' E 139°43'1110.8
2016-Aug-15 01:33N 35°11' E 139°47'9 9.3
2016-Aug-15 00:33N 35°02' E 139°43'  
2016-Aug-11 00:33N 29°43' E 122°27'1312.7
2016-Aug-10 23:33N 29°49' E 122°14'1010.1
2016-Aug-10 22:34N 29°47' E 122°03'2 2.0
2016-Aug-10 21:33N 29°46' E 122°00'0 0.0
2016-Aug-10 06:17N 29°46' E 122°00'1 1.7
2016-Aug-10 05:32N 29°47' E 122°02'7 7.1
2016-Aug-10 04:33N 29°50' E 122°09'10 9.6
2016-Aug-10 03:33N 29°45' E 122°19'3 2.8
2016-Aug-10 02:33N 29°44' E 122°22'10 9.9
2016-Aug-10 01:33N 29°46' E 122°33'1211.6
2016-Aug-10 00:32N 29°35' E 122°38'1919.2
2016-Aug-09 23:32N 29°16' E 122°32'30820.0
2016-Aug-09 08:07N 24°48' E 119°43'1120.1
2016-Aug-09 07:33N 24°42' E 119°32'4020.0
2016-Aug-09 05:34N 24°21' E 118°55'2220.3
2016-Aug-09 04:29N 24°07' E 118°36'2020.7
2016-Aug-09 03:32N 23°55' E 118°20'2220.6
2016-Aug-09 02:29N 23°42' E 118°01'21819.4
2016-Aug-08 15:13N 22°07' E 114°28'2313.3
2016-Aug-08 13:31N 22°17' E 114°06'1211.4
2016-Aug-08 12:28N 22°22' E 113°54'5 0.3
2016-Aug-07 16:33N 22°28' E 113°52'11 8.9
2016-Aug-07 15:18N 22°21' E 114°02'5 6.4
2016-Aug-07 14:33N 22°20' E 114°07'0 0.2
2016-Aug-07 13:17N 22°20' E 114°07'0 0.1
2016-Aug-07 12:05N 22°20' E 114°07'0 0.0
2016-Aug-07 11:17N 22°20' E 114°07'0 0.0
2016-Aug-07 10:23N 22°20' E 114°07'0 0.0
2016-Aug-07 09:29N 22°20' E 114°07'0 0.0
2016-Aug-07 08:29N 22°20' E 114°07'0 0.0
2016-Aug-07 03:23N 22°20' E 114°07'0 0.0
2016-Aug-07 02:23N 22°20' E 114°07'0 0.0
2016-Aug-06 23:33N 22°20' E 114°07'19 1.0
2016-Aug-06 03:32N 22°09' E 113°50'1414.6
2016-Aug-06 02:33N 22°22' E 113°47'  
Track history (hours):
 
Tides and Currents Weather Stations Pressure Air Temp Water Temp Dewpoint Dewpoint Depression Visibility Wind Speed Wind Dir Waves Ship Positions

Svend Maersk

Last reported at 2016-Aug-15 18:06 UTC. Time now 2016-Aug-25 21:59 UTC.
Position N 35°11' E 140°46'.
Warning: this ship's position is 10 days out of date.

Type: Ship (hazmat cat A). MMSI: 219791000.

Date/timePositionNaut miles runAvg speedWind from/ knotsBaromVisibWave heightAir tempDewpointWater temp
2016-Aug-15 18:06N 35°11' E 140°46'1220.8
2016-Aug-15 17:33N 35°06' E 140°33'2020.0
2016-Aug-15 16:33N 34°56' E 140°12'1817.3
2016-Aug-15 15:32N 34°50' E 139°52'1413.9
2016-Aug-15 14:34N 34°60' E 139°41'1514.6
2016-Aug-15 13:33N 35°14' E 139°46'1111.0
2016-Aug-15 12:34N 35°24' E 139°40'1 0.5
2016-Aug-15 11:33N 35°24' E 139°41'0 0.0
2016-Aug-15 10:32N 35°24' E 139°41'0 0.0
2016-Aug-15 09:29N 35°24' E 139°41'0 0.0
2016-Aug-15 08:26N 35°24' E 139°41'0 0.0
2016-Aug-15 07:32N 35°24' E 139°41'0 0.0
2016-Aug-15 06:32N 35°24' E 139°41'0 0.0
2016-Aug-15 04:32N 35°24' E 139°41'0 0.0
2016-Aug-15 03:33N 35°24' E 139°41'3 3.0
2016-Aug-15 02:33N 35°21' E 139°43'1110.8
2016-Aug-15 01:33N 35°11' E 139°47'9 9.3
2016-Aug-15 00:33N 35°02' E 139°43'  
2016-Aug-11 00:33N 29°43' E 122°27'1312.7
2016-Aug-10 23:33N 29°49' E 122°14'1010.1
2016-Aug-10 22:34N 29°47' E 122°03'2 2.0
2016-Aug-10 21:33N 29°46' E 122°00'0 0.0
2016-Aug-10 06:17N 29°46' E 122°00'1 1.7
2016-Aug-10 05:32N 29°47' E 122°02'7 7.1
2016-Aug-10 04:33N 29°50' E 122°09'10 9.6
2016-Aug-10 03:33N 29°45' E 122°19'3 2.8
2016-Aug-10 02:33N 29°44' E 122°22'10 9.9
2016-Aug-10 01:33N 29°46' E 122°33'1211.6
2016-Aug-10 00:32N 29°35' E 122°38'1919.2
2016-Aug-09 23:32N 29°16' E 122°32'30820.0
2016-Aug-09 08:07N 24°48' E 119°43'1120.1
2016-Aug-09 07:33N 24°42' E 119°32'4020.0
2016-Aug-09 05:34N 24°21' E 118°55'2220.3
2016-Aug-09 04:29N 24°07' E 118°36'2020.7
2016-Aug-09 03:32N 23°55' E 118°20'2220.6
2016-Aug-09 02:29N 23°42' E 118°01'21819.4
2016-Aug-08 15:13N 22°07' E 114°28'2313.3
2016-Aug-08 13:31N 22°17' E 114°06'1211.4
2016-Aug-08 12:28N 22°22' E 113°54'5 0.3
2016-Aug-07 16:33N 22°28' E 113°52'11 8.9
2016-Aug-07 15:18N 22°21' E 114°02'5 6.4
2016-Aug-07 14:33N 22°20' E 114°07'0 0.2
2016-Aug-07 13:17N 22°20' E 114°07'0 0.1
2016-Aug-07 12:05N 22°20' E 114°07'0 0.0
2016-Aug-07 11:17N 22°20' E 114°07'0 0.0
2016-Aug-07 10:23N 22°20' E 114°07'0 0.0
2016-Aug-07 09:29N 22°20' E 114°07'0 0.0
2016-Aug-07 08:29N 22°20' E 114°07'0 0.0
2016-Aug-07 03:23N 22°20' E 114°07'0 0.0
2016-Aug-07 02:23N 22°20' E 114°07'0 0.0
2016-Aug-06 23:33N 22°20' E 114°07'19 1.0
2016-Aug-06 03:32N 22°09' E 113°50'1414.6
2016-Aug-06 02:33N 22°22' E 113°47'  

Dump ship's entire track history